Time;durP1;ratioP1;P1;durP2;ratioP2;P2;SDS_P1;SDS_P2;PMS_P1;PMS_P2;Temp;Humidity;BMP_temperature;BMP_pressure;BME280_temperature;BME280_humidity;BME280_pressure;Samples;Min_cycle;Max_cycle;Signal;HPM_P1;HPM_P2
2022/07/31 00:00:42;;;;;;;;;1.00;1.00;;;;;24.57;48.15;101487.81;5017417;28;45315;-66
2022/07/31 00:03:08;;;;;;;;;3.00;2.00;;;;;24.48;48.64;101496.44;5017547;28;45190;-65
2022/07/31 00:05:33;;;;;;;;;1.00;1.00;;;;;24.43;48.31;101491.66;5017756;28;45553;-65
2022/07/31 00:08:01;;;;;;;;;1.33;1.33;;;;;24.35;49.09;101486.47;5017202;28;46434;-64
2022/07/31 00:10:27;;;;;;;;;1.33;1.33;;;;;24.27;48.42;101481.25;5015887;28;46212;-65
2022/07/31 00:12:52;;;;;;;;;1.00;1.00;;;;;24.21;49.37;101487.53;5017127;28;45366;-66
2022/07/31 00:15:18;;;;;;;;;2.00;2.00;;;;;24.09;49.52;101475.69;5032964;28;45440;-65
2022/07/31 00:17:44;;;;;;;;;4.67;3.33;;;;;24.06;49.69;101473.41;5017194;28;46340;-65
2022/07/31 00:20:13;;;;;;;;;2.00;2.00;;;;;23.95;49.43;101451.28;5017149;28;45725;-64
2022/07/31 00:22:41;;;;;;;;;1.67;1.00;;;;;23.69;49.11;101418.81;5017520;28;45252;-65
2022/07/31 00:25:07;;;;;;;;;1.00;1.00;;;;;24.20;48.54;101480.44;5017491;28;45407;-64
2022/07/31 00:27:32;;;;;;;;;2.00;1.00;;;;;23.52;49.04;101374.97;5017079;28;45579;-65
2022/07/31 00:29:58;;;;;;;;;1.33;1.33;;;;;24.12;48.99;101473.38;5016945;28;45462;-65
2022/07/31 00:32:23;;;;;;;;;3.00;3.00;;;;;24.21;49.17;101476.66;5017107;28;45269;-66
2022/07/31 00:34:49;;;;;;;;;2.00;2.00;;;;;24.22;48.84;101478.34;5017270;28;45339;-65
2022/07/31 00:37:14;;;;;;;;;1.00;1.00;;;;;24.05;48.79;101441.88;5017181;28;45846;-65
2022/07/31 00:39:40;;;;;;;;;1.00;1.00;;;;;24.28;48.49;101477.50;5016926;28;45397;-65
2022/07/31 00:42:19;;;;;;;;;2.33;2.00;;;;;24.12;48.65;101451.63;5017076;28;45351;-65
2022/07/31 00:44:45;;;;;;;;;1.33;1.33;;;;;24.19;49.06;101473.34;5032948;28;45188;-65
2022/07/31 00:47:10;;;;;;;;;1.67;1.67;;;;;24.29;48.46;101479.19;5035729;28;46514;-66
2022/07/31 00:49:35;;;;;;;;;1.33;1.33;;;;;24.23;48.59;101472.72;5020450;28;45313;-64
2022/07/31 00:52:01;;;;;;;;;3.00;2.00;;;;;24.33;48.78;101482.31;5020387;28;45561;-65
2022/07/31 00:54:26;;;;;;;;;2.00;2.00;;;;;24.35;48.96;101481.03;5020709;28;45430;-65
2022/07/31 00:56:51;;;;;;;;;1.00;1.00;;;;;24.28;48.74;101477.50;5035463;28;48641;-65
2022/07/31 00:59:17;;;;;;;;;2.00;1.00;;;;;24.24;48.47;101468.09;5020328;28;45445;-66
2022/07/31 01:01:42;;;;;;;;;1.67;1.67;;;;;24.29;48.93;101481.91;5020623;28;45315;-64
2022/07/31 01:04:08;;;;;;;;;1.67;1.67;;;;;24.19;49.12;101478.78;5019241;28;45530;-64
2022/07/31 01:06:33;;;;;;;;;1.00;1.00;;;;;24.15;49.15;101480.25;5019988;28;46873;-64
2022/07/31 01:08:58;;;;;;;;;2.00;2.00;;;;;24.20;48.96;101485.88;5020005;28;45379;-64
2022/07/31 01:11:37;;;;;;;;;1.00;1.00;;;;;23.98;48.80;101447.31;5020409;28;45419;-65
2022/07/31 01:14:06;;;;;;;;;1.33;1.33;;;;;23.91;49.37;101438.38;5018971;28;45286;-65
2022/07/31 01:16:35;;;;;;;;;1.00;1.00;;;;;24.09;49.21;101473.81;5019973;28;46393;-65
2022/07/31 01:19:14;;;;;;;;;2.67;2.67;;;;;24.10;49.55;101485.50;5035330;28;45285;-64
2022/07/31 01:21:48;;;;;;;;;2.67;2.00;;;;;23.81;49.21;101454.25;5020081;28;45154;-66
2022/07/31 01:24:39;;;;;;;;;1.00;1.00;;;;;23.95;49.73;101486.59;5020385;28;45286;-64
2022/07/31 01:27:29;;;;;;;;;1.33;1.33;;;;;23.93;49.41;101483.28;5003516;28;45523;-64
2022/07/31 01:29:58;;;;;;;;;2.00;2.00;;;;;23.82;49.82;101472.22;5019468;28;45306;-64
2022/07/31 01:32:48;;;;;;;;;3.00;2.00;;;;;23.85;49.95;101479.97;5019963;28;45488;-65
2022/07/31 01:35:30;;;;;;;;;1.33;1.33;;;;;23.86;49.92;101479.75;5020214;28;45220;-66
2022/07/31 01:38:04;;;;;;;;;2.67;1.00;;;;;23.69;50.93;101483.13;5019670;28;46827;-65
2022/07/31 01:40:36;;;;;;;;;1.67;1.67;;;;;22.87;51.06;101359.69;5019726;28;45650;-65
2022/07/31 01:43:18;;;;;;;;;1.00;1.00;;;;;23.46;50.68;101473.53;5019691;28;45238;-65
2022/07/31 01:45:46;;;;;;;;;0.75;0.75;;;;;23.43;51.22;101462.28;5020086;28;45279;-65
2022/07/31 01:48:14;;;;;;;;;2.00;2.00;;;;;23.56;51.01;101478.53;5019443;28;46857;-65
2022/07/31 01:50:43;;;;;;;;;2.00;1.67;;;;;23.13;51.03;101405.75;5019141;28;45323;-64
2022/07/31 01:53:13;;;;;;;;;3.00;3.00;;;;;23.60;51.21;101479.78;5019698;28;45254;-65
2022/07/31 01:55:40;;;;;;;;;2.00;2.00;;;;;23.61;51.11;101492.31;5018973;28;45387;-65
2022/07/31 01:58:07;;;;;;;;;1.00;1.00;;;;;23.63;51.00;101492.97;5019318;28;47452;-64
2022/07/31 02:00:32;;;;;;;;;3.00;3.00;;;;;23.63;50.99;101487.53;5019159;28;45443;-65
2022/07/31 02:02:58;;;;;;;;;3.00;1.67;;;;;23.64;50.68;101494.63;5019289;28;45237;-64
2022/07/31 02:05:24;;;;;;;;;2.00;2.00;;;;;23.54;50.90;101483.34;5019639;28;46245;-64
2022/07/31 02:07:52;;;;;;;;;2.00;1.00;;;;;23.55;51.28;101485.84;5019146;28;45928;-64
2022/07/31 02:10:19;;;;;;;;;2.00;1.00;;;;;23.57;51.37;101491.09;5019212;28;45356;-65
2022/07/31 02:12:44;;;;;;;;;2.00;2.00;;;;;23.38;51.25;101457.47;5019449;28;45451;-65
2022/07/31 02:15:13;;;;;;;;;1.00;1.00;;;;;23.53;51.53;101481.66;5019485;28;45379;-65
2022/07/31 02:17:42;;;;;;;;;1.00;1.00;;;;;23.58;51.42;101493.59;5019066;28;47037;-64
2022/07/31 02:20:10;;;;;;;;;3.00;1.00;;;;;23.60;51.00;101493.38;5018900;28;45319;-65
2022/07/31 02:22:35;;;;;;;;;3.75;1.50;;;;;23.41;51.32;101464.34;5020111;28;45498;-64
2022/07/31 02:25:02;;;;;;;;;1.33;1.33;;;;;23.61;51.23;101497.75;5019558;28;46498;-64
2022/07/31 02:27:29;;;;;;;;;2.00;2.00;;;;;23.60;51.21;101490.66;5018788;28;46497;-64
2022/07/31 02:29:58;;;;;;;;;1.00;1.00;;;;;23.54;51.61;101494.19;5018876;28;46414;-65
2022/07/31 02:32:25;;;;;;;;;1.00;1.00;;;;;23.46;52.30;101491.72;5034170;28;45572;-66
2022/07/31 02:34:54;;;;;;;;;1.33;1.33;;;;;23.40;52.32;101493.38;5019060;28;45222;-64
2022/07/31 02:37:22;;;;;;;;;0.00;0.00;;;;;23.28;52.61;101476.91;5034022;28;46150;-64
2022/07/31 02:39:49;;;;;;;;;1.00;1.00;;;;;23.36;52.75;101492.13;5018632;28;45585;-66
2022/07/31 02:42:16;;;;;;;;;0.33;0.33;;;;;23.27;53.08;101485.25;5018976;28;45386;-64
2022/07/31 02:44:41;;;;;;;;;2.00;1.00;;;;;23.25;53.23;101495.47;5019097;28;45166;-66
2022/07/31 02:47:07;;;;;;;;;0.00;0.00;;;;;23.12;53.26;101471.06;5018637;28;46269;-65
2022/07/31 02:49:33;;;;;;;;;1.00;1.00;;;;;23.20;53.88;101485.22;5018519;28;45345;-66
2022/07/31 02:51:58;;;;;;;;;1.00;1.00;;;;;23.13;53.88;101484.41;5018593;28;45412;-65
2022/07/31 02:54:24;;;;;;;;;1.67;1.67;;;;;23.10;54.06;101479.41;5034145;28;45619;-65
2022/07/31 02:56:52;;;;;;;;;1.00;1.00;;;;;23.12;53.66;101477.31;5018444;28;46602;-64
2022/07/31 02:59:18;;;;;;;;;0.00;0.00;;;;;23.01;53.77;101467.09;5018317;28;45512;-63
2022/07/31 03:01:43;;;;;;;;;0.33;0.33;;;;;22.96;54.28;101461.44;5018789;28;45330;-65
2022/07/31 03:04:09;;;;;;;;;1.33;1.33;;;;;23.09;54.50;101485.88;5018671;28;45386;-66
2022/07/31 03:06:34;;;;;;;;;1.00;1.00;;;;;22.93;54.18;101470.84;5018417;28;45734;-65
2022/07/31 03:09:00;;;;;;;;;1.67;1.67;;;;;23.04;54.96;101488.38;5017470;28;45292;-66
2022/07/31 03:11:25;;;;;;;;;2.00;2.00;;;;;22.84;55.27;101463.97;5018259;28;45562;-65
2022/07/31 03:13:53;;;;;;;;;1.00;1.00;;;;;22.89;55.54;101490.47;5018681;28;45500;-65
2022/07/31 03:16:21;;;;;;;;;2.00;2.00;;;;;22.84;55.89;101487.53;5017891;28;46610;-64
2022/07/31 03:18:47;;;;;;;;;4.00;2.33;;;;;22.23;55.75;101373.78;5018149;28;45420;-65
2022/07/31 03:21:13;;;;;;;;;2.33;2.33;;;;;22.62;55.89;101447.00;5018238;28;45371;-65
2022/07/31 03:23:39;;;;;;;;;4.00;4.00;;;;;22.73;56.10;101469.97;5033526;28;45608;-64
2022/07/31 03:26:04;;;;;;;;;4.00;4.00;;;;;22.61;56.60;101467.00;5017852;28;47784;-65
2022/07/31 03:28:32;;;;;;;;;10.67;10.67;;;;;22.60;56.54;101470.75;5017838;28;45447;-64
2022/07/31 03:30:57;;;;;;;;;7.33;6.00;;;;;22.55;57.02;101470.53;5033351;28;45266;-65
2022/07/31 03:33:23;;;;;;;;;6.00;5.00;;;;;22.46;57.07;101460.94;5033475;28;45250;-63
2022/07/31 03:35:48;;;;;;;;;4.00;4.00;;;;;22.52;56.90;101454.69;5017774;28;45570;-65
2022/07/31 03:38:14;;;;;;;;;6.33;5.00;;;;;22.17;56.50;101397.09;5017882;28;45445;-64
2022/07/31 03:40:39;;;;;;;;;5.00;3.00;;;;;22.61;56.15;101452.63;5017707;28;45453;-65
2022/07/31 03:43:05;;;;;;;;;7.33;7.33;;;;;22.62;56.11;101465.97;5018030;28;45228;-65
2022/07/31 03:45:33;;;;;;;;;6.00;6.00;;;;;22.53;56.86;101450.13;5017761;28;45346;-65
2022/07/31 03:48:00;;;;;;;;;7.33;7.33;;;;;22.44;56.63;101435.94;5017723;28;45450;-65
2022/07/31 03:50:26;;;;;;;;;9.67;8.33;;;;;22.54;56.56;101457.19;5017803;28;45205;-65
2022/07/31 03:52:52;;;;;;;;;8.67;8.67;;;;;22.49;56.60;101447.00;5033379;28;45535;-65
2022/07/31 03:55:17;;;;;;;;;11.00;8.33;;;;;22.29;56.35;101410.88;5017523;28;46251;-65
2022/07/31 03:57:43;;;;;;;;;13.00;9.67;;;;;22.49;56.68;101457.81;5017585;28;45502;-65
2022/07/31 04:00:09;;;;;;;;;10.00;9.67;;;;;22.33;56.58;101455.47;5017626;28;45451;-65
2022/07/31 04:02:35;;;;;;;;;13.67;9.67;;;;;22.42;56.91;101470.50;5017744;28;45544;-65
2022/07/31 04:05:01;;;;;;;;;8.67;8.67;;;;;22.40;56.52;101459.88;5032671;28;46850;-65
2022/07/31 04:07:27;;;;;;;;;10.67;10.00;;;;;22.37;56.75;101462.16;5017403;28;45272;-65
2022/07/31 04:09:52;;;;;;;;;13.67;13.00;;;;;22.43;56.84;101467.63;5032886;28;45542;-64
2022/07/31 04:12:17;;;;;;;;;9.33;9.33;;;;;22.29;56.70;101449.66;5016314;28;45348;-64
2022/07/31 04:14:43;;;;;;;;;13.67;13.67;;;;;22.38;56.54;101463.81;5032884;28;46630;-65
2022/07/31 04:17:08;;;;;;;;;13.67;12.67;;;;;21.95;56.37;101388.25;5017289;28;45300;-66
2022/07/31 04:19:34;;;;;;;;;15.33;13.33;;;;;22.17;56.01;101413.34;5017091;28;45243;-65
2022/07/31 04:22:00;;;;;;;;;15.33;15.33;;;;;22.44;56.43;101465.75;5017506;28;45619;-65
2022/07/31 04:24:25;;;;;;;;;11.00;11.00;;;;;22.40;56.34;101450.91;5017082;28;45658;-66
2022/07/31 04:26:53;;;;;;;;;12.67;12.67;;;;;22.07;56.31;101400.19;5017128;28;45518;-63
2022/07/31 04:29:19;;;;;;;;;21.00;13.00;;;;;22.33;56.88;101436.53;5017394;28;45256;-65
2022/07/31 04:31:45;;;;;;;;;14.00;14.00;;;;;22.50;56.82;101458.66;5017187;28;45594;-65
2022/07/31 04:34:11;;;;;;;;;15.67;13.00;;;;;22.27;56.72;101423.81;5017057;28;46624;-65
2022/07/31 04:36:36;;;;;;;;;10.00;10.00;;;;;22.60;56.60;101470.75;5015496;28;45970;-65
2022/07/31 04:39:02;;;;;;;;;8.33;8.33;;;;;22.68;56.52;101467.88;5016936;28;45324;-65
2022/07/31 04:41:28;;;;;;;;;15.00;15.00;;;;;22.72;56.10;101469.13;5017015;28;45396;-65
2022/07/31 04:43:53;;;;;;;;;7.67;7.67;;;;;22.72;56.14;101477.25;5016733;28;46313;-65
2022/07/31 04:46:19;;;;;;;;;9.00;8.00;;;;;22.67;55.98;101463.50;5017081;28;45409;-65
2022/07/31 04:48:44;;;;;;;;;9.00;9.00;;;;;22.69;55.95;101450.56;5016811;28;45447;-65
2022/07/31 04:51:17;;;;;;;;;11.33;10.33;;;;;22.80;56.32;101465.38;5016984;28;45404;-65
2022/07/31 04:53:44;;;;;;;;;6.00;6.00;;;;;22.83;55.78;101478.56;5031980;28;47378;-65
2022/07/31 04:58:53;;;;;;;;;6.00;5.00;;;;;22.56;55.32;101404.47;5016873;28;45307;-66
2022/07/31 05:01:18;;;;;;;;;6.00;6.00;;;;;22.75;55.25;101441.59;5017051;28;45334;-66
2022/07/31 05:03:44;;;;;;;;;7.00;7.00;;;;;22.87;55.79;101468.97;5016775;28;45721;-64
2022/07/31 05:06:12;;;;;;;;;5.00;5.00;;;;;22.91;55.74;101474.81;5016716;28;45280;-66
2022/07/31 05:08:38;;;;;;;;;8.33;5.67;;;;;23.00;55.45;101489.81;5016768;28;45411;-65
2022/07/31 05:11:23;;;;;;;;;6.33;6.33;;;;;23.03;55.36;101476.72;5031761;28;45361;-65
2022/07/31 05:13:49;;;;;;;;;5.67;5.33;;;;;23.11;55.28;101481.06;5016381;28;46970;-66
2022/07/31 05:16:15;;;;;;;;;7.00;6.00;;;;;23.12;54.92;101482.75;5016441;28;45518;-64
2022/07/31 05:18:41;;;;;;;;;5.00;5.00;;;;;22.97;54.69;101444.13;5016485;28;45366;-64
2022/07/31 05:21:06;;;;;;;;;5.00;5.00;;;;;22.94;54.63;101434.53;5016604;28;45400;-65
2022/07/31 05:23:31;;;;;;;;;9.00;6.67;;;;;23.12;54.21;101469.19;5016152;28;45652;-64
2022/07/31 05:25:57;;;;;;;;;7.00;6.00;;;;;23.11;54.29;101459.38;5015239;28;45306;-65
2022/07/31 05:28:22;;;;;;;;;7.00;6.00;;;;;23.15;54.42;101460.63;5016595;28;45425;-65
2022/07/31 05:30:47;;;;;;;;;5.67;5.67;;;;;23.04;54.58;101448.53;5017222;28;45306;-65
2022/07/31 05:33:13;;;;;;;;;6.00;6.00;;;;;23.02;55.06;101455.19;5034892;28;46786;-65
2022/07/31 05:35:38;;;;;;;;;5.67;5.00;;;;;23.00;55.12;101463.53;5019852;28;45344;-64
2022/07/31 05:38:03;;;;;;;;;8.33;8.00;;;;;23.14;55.11;101464.38;5035348;28;45507;-65
2022/07/31 05:40:29;;;;;;;;;6.33;6.33;;;;;23.22;54.65;101455.19;5019960;28;45315;-64
2022/07/31 05:42:54;;;;;;;;;5.33;4.33;;;;;23.14;54.44;101431.81;5019369;28;46438;-66
2022/07/31 05:45:20;;;;;;;;;5.33;4.33;;;;;23.41;53.98;101453.50;5019902;28;45453;-66
2022/07/31 05:47:45;;;;;;;;;5.00;5.00;;;;;23.52;54.07;101458.28;5019521;28;45420;-65
2022/07/31 05:50:10;;;;;;;;;7.00;6.00;;;;;23.59;53.21;101461.84;5019151;28;46613;-65
2022/07/31 05:52:36;;;;;;;;;6.00;5.00;;;;;23.75;53.23;101472.25;5019697;28;46090;-64
2022/07/31 05:55:02;;;;;;;;;5.00;5.00;;;;;23.75;52.99;101465.97;5019554;28;45231;-65
2022/07/31 05:57:27;;;;;;;;;5.00;5.00;;;;;23.78;53.15;101462.84;5019638;28;45487;-65
2022/07/31 05:59:53;;;;;;;;;5.67;4.33;;;;;23.42;52.39;101403.59;5018367;28;45262;-66
2022/07/31 06:02:18;;;;;;;;;5.00;5.00;;;;;23.81;52.71;101470.56;5019507;28;46733;-66
2022/07/31 06:04:43;;;;;;;;;4.00;4.00;;;;;23.87;52.67;101475.97;5019185;28;45267;-65
2022/07/31 06:07:08;;;;;;;;;4.67;4.00;;;;;23.83;52.72;101463.06;5019277;28;45225;-64
2022/07/31 06:09:34;;;;;;;;;4.00;2.33;;;;;23.93;52.30;101485.97;5019653;28;45517;-65
2022/07/31 06:11:59;;;;;;;;;5.00;5.00;;;;;23.92;52.18;101489.75;5019267;28;45466;-65
2022/07/31 06:14:25;;;;;;;;;4.00;4.00;;;;;23.90;52.40;101472.84;5019400;28;45422;-65
2022/07/31 06:16:51;;;;;;;;;6.67;6.00;;;;;23.44;51.71;101380.66;5019275;28;45534;-64
2022/07/31 06:19:19;;;;;;;;;4.33;4.33;;;;;24.18;51.55;101474.38;5019179;28;45362;-65
2022/07/31 06:21:44;;;;;;;;;7.00;4.67;;;;;24.74;49.86;101454.66;5018864;28;45519;-65
2022/07/31 06:24:10;;;;;;;;;5.00;4.00;;;;;25.29;48.54;101468.47;5019186;28;45291;-65
2022/07/31 06:26:36;;;;;;;;;5.00;4.00;;;;;25.70;47.52;101468.72;5019432;28;45252;-64
2022/07/31 06:29:02;;;;;;;;;4.00;4.00;;;;;26.10;46.91;101478.31;5018185;28;45596;-64
2022/07/31 06:31:28;;;;;;;;;3.00;3.00;;;;;26.18;46.17;101472.53;5034077;28;45583;-65
2022/07/31 06:33:53;;;;;;;;;3.33;3.00;;;;;26.31;46.31;101475.91;5018841;28;45243;-65
2022/07/31 06:36:18;;;;;;;;;3.33;3.33;;;;;26.38;45.95;101489.47;5018999;28;45224;-65
2022/07/31 06:38:44;;;;;;;;;4.00;4.00;;;;;26.29;45.79;101474.50;5019158;28;45502;-66
2022/07/31 06:41:10;;;;;;;;;3.00;3.00;;;;;26.19;45.66;101480.47;5018818;28;46458;-65
2022/07/31 06:43:35;;;;;;;;;6.00;4.67;;;;;26.58;45.44;101490.03;5034061;28;45330;-64
2022/07/31 06:46:00;;;;;;;;;5.00;5.00;;;;;27.27;43.91;101469.47;5019135;28;45526;-65
2022/07/31 06:48:26;;;;;;;;;5.00;5.00;;;;;28.08;42.43;101478.66;5019167;28;45501;-66
2022/07/31 06:50:51;;;;;;;;;7.00;7.00;;;;;28.38;40.83;101477.59;5018336;28;45449;-64
2022/07/31 06:53:16;;;;;;;;;6.00;6.00;;;;;28.38;40.36;101406.50;5018564;28;45411;-65
2022/07/31 06:55:42;;;;;;;;;5.00;5.00;;;;;29.54;39.70;101454.13;5017404;28;45472;-65
2022/07/31 06:58:07;;;;;;;;;4.00;4.00;;;;;30.53;37.75;101475.91;5018769;28;45502;-65
2022/07/31 07:00:32;;;;;;;;;3.00;3.00;;;;;31.33;35.39;101487.91;5017040;28;47893;-66
2022/07/31 07:02:58;;;;;;;;;10.00;9.67;;;;;31.27;35.40;101471.66;5018585;28;45269;-65
2022/07/31 07:05:23;;;;;;;;;8.67;7.33;;;;;31.11;35.29;101479.75;5018587;28;45464;-65
2022/07/31 07:07:48;;;;;;;;;4.33;4.33;;;;;30.73;35.49;101485.47;5018580;28;45799;-65
2022/07/31 07:10:14;;;;;;;;;6.00;6.00;;;;;30.51;35.57;101491.00;5033662;28;47412;-65
2022/07/31 07:12:39;;;;;;;;;4.33;4.33;;;;;30.51;36.01;101486.34;5018122;28;45296;-65
2022/07/31 07:15:05;;;;;;;;;4.67;4.67;;;;;30.50;36.06;101487.41;5018313;28;45390;-68
2022/07/31 07:17:31;;;;;;;;;2.00;2.00;;;;;30.27;35.95;101490.47;5018510;28;45557;-66
2022/07/31 07:19:56;;;;;;;;;9.33;9.33;;;;;30.06;36.38;101489.41;5017814;28;45804;-66
2022/07/31 07:22:21;;;;;;;;;6.67;6.67;;;;;30.16;35.95;101494.16;5018099;28;45174;-66
2022/07/31 07:24:47;;;;;;;;;7.67;7.67;;;;;30.53;35.74;101484.16;5017706;28;45470;-65
2022/07/31 07:27:12;;;;;;;;;6.00;5.00;;;;;31.27;35.50;101494.47;5017864;28;45170;-66
2022/07/31 07:29:38;;;;;;;;;16.00;16.00;;;;;32.37;33.43;101491.75;5017789;28;46630;-64
2022/07/31 07:32:03;;;;;;;;;15.33;14.00;;;;;33.18;31.82;101480.00;5016441;28;45256;-66
2022/07/31 07:34:29;;;;;;;;;4.67;4.67;;;;;33.14;31.22;101490.75;5018080;28;45262;-66
2022/07/31 07:36:54;;;;;;;;;6.00;6.00;;;;;32.76;31.81;101494.03;5018136;28;45533;-66
2022/07/31 07:39:21;;;;;;;;;22.33;22.33;;;;;32.08;32.38;101450.13;5017604;28;46134;-66
2022/07/31 07:41:46;;;;;;;;;6.00;5.00;;;;;31.98;32.40;101499.56;5016176;28;46280;-66
2022/07/31 07:44:12;;;;;;;;;5.67;5.67;;;;;31.54;33.02;101499.88;5017663;28;45449;-66
2022/07/31 07:46:37;;;;;;;;;5.67;5.67;;;;;31.29;33.59;101496.97;5017845;28;45509;-66
2022/07/31 07:49:03;;;;;;;;;14.00;13.00;;;;;31.45;33.12;101495.97;5017337;28;45542;-66
2022/07/31 07:51:29;;;;;;;;;7.33;7.33;;;;;31.45;33.31;101495.97;5017131;28;45377;-65
2022/07/31 07:53:54;;;;;;;;;6.00;6.00;;;;;31.23;33.43;101487.00;5016901;28;45840;-66
2022/07/31 07:56:20;;;;;;;;;10.00;8.33;;;;;31.09;33.67;101505.84;5017611;28;45446;-65
2022/07/31 07:58:47;;;;;;;;;11.67;10.33;;;;;30.76;33.91;101473.97;5016875;28;45460;-66
2022/07/31 08:01:13;;;;;;;;;66.50;53.75;;;;;30.55;34.39;101471.00;5017333;28;45484;-66
2022/07/31 08:03:38;;;;;;;;;7.33;7.33;;;;;30.43;34.80;101489.53;5017171;28;45159;-65
2022/07/31 08:06:04;;;;;;;;;10.00;10.00;;;;;30.36;35.37;101494.41;5016220;28;45524;-66
2022/07/31 08:08:29;;;;;;;;;8.00;6.33;;;;;30.20;35.15;101478.84;5017345;28;46733;-66
2022/07/31 08:10:54;;;;;;;;;6.00;6.00;;;;;30.37;34.83;101497.97;5017226;28;45241;-66
2022/07/31 08:13:20;;;;;;;;;6.67;6.67;;;;;30.66;34.51;101504.09;5017391;28;45575;-66
2022/07/31 08:15:45;;;;;;;;;9.33;9.33;;;;;30.74;34.41;101500.84;5017600;28;45182;-66
2022/07/31 08:18:11;;;;;;;;;4.00;4.00;;;;;31.03;34.42;101504.94;5016740;28;45823;-65
2022/07/31 08:20:37;;;;;;;;;4.67;4.67;;;;;31.00;33.86;101497.25;5016778;28;45431;-66
2022/07/31 08:23:02;;;;;;;;;5.67;5.00;;;;;30.99;33.94;101503.00;5016993;28;45430;-66
2022/07/31 08:25:27;;;;;;;;;5.67;5.00;;;;;30.97;33.75;101505.19;5017039;28;45611;-65
2022/07/31 08:27:53;;;;;;;;;7.00;7.00;;;;;30.99;34.14;101503.00;5032004;28;46902;-65
2022/07/31 08:30:18;;;;;;;;;13.00;11.00;;;;;31.04;34.04;101501.16;5016783;28;45347;-65
2022/07/31 08:32:44;;;;;;;;;7.67;7.33;;;;;31.38;33.74;101489.88;5032505;28;45569;-65
2022/07/31 08:35:09;;;;;;;;;25.00;24.00;;;;;32.02;33.19;101500.69;5017080;28;45385;-66
2022/07/31 08:37:34;;;;;;;;;6.33;6.33;;;;;32.67;31.46;101497.34;5016552;28;45457;-66
2022/07/31 08:40:00;;;;;;;;;8.33;7.67;;;;;33.12;31.54;101497.66;5016639;28;45560;-64
2022/07/31 08:42:25;;;;;;;;;7.00;7.00;;;;;33.55;30.23;101480.53;5016798;28;45404;-65
2022/07/31 08:44:51;;;;;;;;;7.00;7.00;;;;;33.86;29.65;101495.09;5015520;28;45362;-67
2022/07/31 08:47:16;;;;;;;;;5.67;5.67;;;;;33.83;29.91;101498.34;5031737;28;46847;-66
2022/07/31 08:49:46;;;;;;;;;11.33;11.33;;;;;33.85;29.97;101498.13;5016271;28;45482;-66
2022/07/31 08:52:24;;;;;;;;;7.00;7.00;;;;;33.69;29.24;101471.66;5016919;28;45514;-65
2022/07/31 08:54:51;;;;;;;;;9.00;8.00;;;;;33.73;29.59;101497.56;5016639;28;45328;-66
2022/07/31 08:57:17;;;;;;;;;7.00;6.00;;;;;33.50;29.50;101494.31;5016601;28;46010;-65
2022/07/31 08:59:42;;;;;;;;;7.33;7.33;;;;;33.13;30.03;101471.75;5016747;28;45233;-65
2022/07/31 09:02:09;;;;;;;;;7.00;6.00;;;;;32.93;30.75;101476.16;5016320;28;45546;-65
2022/07/31 09:04:35;;;;;;;;;8.00;6.00;;;;;33.05;30.80;101503.47;5032224;28;45554;-70
2022/07/31 09:07:00;;;;;;;;;5.00;5.00;;;;;32.90;30.80;101498.75;5034032;28;47757;-68
2022/07/31 09:09:27;;;;;;;;;7.33;7.33;;;;;32.80;30.64;101482.22;5018673;28;45788;-67
2022/07/31 09:11:53;;;;;;;;;6.67;6.00;;;;;32.98;30.50;101498.19;5018746;28;45468;-68
2022/07/31 09:14:28;;;;;;;;;9.33;7.00;;;;;33.29;29.85;101500.94;5020226;28;45245;-67
2022/07/31 09:16:54;;;;;;;;;9.00;9.00;;;;;33.38;29.75;101468.97;5019780;28;46041;-67
2022/07/31 09:19:22;;;;;;;;;9.00;7.33;;;;;33.67;29.61;101471.13;5019805;28;45341;-64
2022/07/31 09:21:47;;;;;;;;;5.67;5.67;;;;;34.12;28.66;101498.56;5020171;28;45410;-64
2022/07/31 09:24:28;;;;;;;;;7.67;7.67;;;;;35.16;27.85;101484.59;5020197;28;45343;-64
2022/07/31 09:27:04;;;;;;;;;6.00;6.00;;;;;36.44;25.68;101484.81;5019558;28;46333;-64
2022/07/31 09:29:38;;;;;;;;;6.00;6.00;;;;;38.10;23.79;101492.34;5019691;28;45304;-63
2022/07/31 09:32:14;;;;;;;;;6.00;6.00;;;;;39.68;22.32;101480.13;5019557;28;45387;-64
2022/07/31 09:34:41;;;;;;;;;7.00;6.67;;;;;40.59;20.53;101413.22;5019963;28;45299;-64
2022/07/31 09:37:16;;;;;;;;;8.00;7.00;;;;;41.64;19.46;101489.84;5017654;28;46546;-62
2022/07/31 09:39:48;;;;;;;;;5.00;5.00;;;;;42.53;19.32;101496.25;4996062;28;46734;-63
2022/07/31 09:42:13;;;;;;;;;6.00;6.00;;;;;43.54;17.93;101477.06;4999364;28;45388;-64
2022/07/31 09:44:44;;;;;;;;;27.33;21.67;;;;;44.65;17.36;101478.50;4999692;28;45574;-64
2022/07/31 09:47:27;;;;;;;;;5.33;4.67;;;;;45.53;15.88;101487.69;4998905;28;46872;-64
2022/07/31 09:50:04;;;;;;;;;4.00;4.00;;;;;46.54;14.88;101491.63;5015971;28;45627;-65
2022/07/31 09:52:31;;;;;;;;;6.00;6.00;;;;;47.40;13.95;101494.84;5019019;28;45343;-65
2022/07/31 09:55:06;;;;;;;;;6.00;6.00;;;;;47.75;14.09;101494.63;5019458;28;45504;-65
2022/07/31 09:57:34;;;;;;;;;5.00;5.00;;;;;47.81;13.68;101493.09;5019001;28;45584;-65
2022/07/31 10:00:00;;;;;;;;;4.67;4.67;;;;;47.35;13.44;101485.91;5018952;28;45364;-64
2022/07/31 10:02:28;;;;;;;;;6.33;6.33;;;;;47.14;13.59;101483.56;5001219;28;45341;-64
2022/07/31 10:04:55;;;;;;;;;7.33;7.33;;;;;47.25;13.90;101495.81;5019466;28;45460;-64
2022/07/31 10:07:25;;;;;;;;;6.00;6.00;;;;;47.14;14.20;101498.44;5017868;28;47918;-64
2022/07/31 10:09:54;;;;;;;;;6.00;6.00;;;;;46.50;14.34;101480.31;5018688;28;45377;-64
2022/07/31 10:12:22;;;;;;;;;6.67;6.67;;;;;45.29;15.39;101473.84;5019218;28;45307;-64
2022/07/31 10:14:50;;;;;;;;;6.00;6.00;;;;;43.97;16.73;101464.44;5019210;28;45235;-65
2022/07/31 10:17:24;;;;;;;;;5.67;5.67;;;;;42.44;17.71;101482.28;5000944;28;46495;-65
2022/07/31 10:19:50;;;;;;;;;6.00;5.67;;;;;40.86;18.88;101453.88;5018890;28;45514;-65
2022/07/31 10:22:18;;;;;;;;;6.67;6.00;;;;;39.92;20.47;101483.28;5018956;28;45281;-66
2022/07/31 10:24:46;;;;;;;;;7.00;7.00;;;;;38.52;21.99;101476.44;5019370;28;45438;-65
2022/07/31 10:27:14;;;;;;;;;7.00;7.00;;;;;37.02;23.29;101470.56;5018671;28;45686;-64
2022/07/31 10:29:39;;;;;;;;;7.00;7.00;;;;;35.77;24.94;101452.72;5018901;28;45463;-64
2022/07/31 10:32:06;;;;;;;;;9.00;8.00;;;;;35.24;25.61;101467.41;5017655;28;45306;-64
2022/07/31 10:34:33;;;;;;;;;7.67;6.33;;;;;34.81;26.92;101471.06;5018829;28;45320;-63
2022/07/31 10:37:07;;;;;;;;;8.00;8.00;;;;;33.87;27.35;101449.00;5018630;28;46877;-65
2022/07/31 10:39:57;;;;;;;;;7.33;6.67;;;;;33.26;28.47;101463.75;5000769;28;46100;-65
2022/07/31 10:42:51;;;;;;;;;5.67;5.67;;;;;32.85;29.39;101479.50;5018895;28;45372;-65
2022/07/31 10:45:17;;;;;;;;;7.33;7.33;;;;;32.51;29.83;101472.81;5018344;28;45195;-64
2022/07/31 10:47:57;;;;;;;;;5.00;5.00;;;;;31.95;30.61;101472.63;5000574;28;47698;-65
2022/07/31 10:50:25;;;;;;;;;7.00;6.00;;;;;31.40;31.48;101444.53;5018047;28;45540;-64
2022/07/31 10:52:50;;;;;;;;;5.00;5.00;;;;;31.26;31.99;101461.78;5018593;28;45576;-63
2022/07/31 10:55:21;;;;;;;;;8.33;6.67;;;;;31.04;32.79;101461.88;5018485;28;45463;-65
2022/07/31 10:57:47;;;;;;;;;8.33;8.33;;;;;30.87;32.92;101464.75;5018197;28;46520;-64
2022/07/31 11:00:19;;;;;;;;;7.67;7.67;;;;;30.46;33.70;101471.75;5018298;28;45470;-65
2022/07/31 11:02:45;;;;;;;;;10.33;9.33;;;;;30.16;34.39;101455.75;5018138;28;45516;-64
2022/07/31 11:05:20;;;;;;;;;9.33;8.33;;;;;29.74;33.85;101392.44;5016855;28;45602;-64
2022/07/31 11:07:46;;;;;;;;;7.00;7.00;;;;;30.06;34.42;101463.88;5018098;28;45624;-64
2022/07/31 11:10:16;;;;;;;;;7.00;6.33;;;;;29.83;34.73;101463.00;5018198;28;45302;-64
2022/07/31 11:12:42;;;;;;;;;8.33;8.33;;;;;29.62;35.50;101466.56;5000313;28;45482;-64
2022/07/31 11:15:19;;;;;;;;;6.33;6.33;;;;;29.32;36.16;101464.19;5018197;28;45513;-64
2022/07/31 11:17:44;;;;;;;;;7.67;6.33;;;;;29.33;35.98;101472.16;5017839;28;46629;-64
2022/07/31 11:20:36;;;;;;;;;11.33;10.33;;;;;29.17;36.43;101442.88;5017937;28;45310;-64
2022/07/31 11:23:04;;;;;;;;;8.33;8.33;;;;;29.10;36.54;101463.31;5013384;28;45214;-64
2022/07/31 11:25:33;;;;;;;;;7.00;7.00;;;;;28.92;37.15;101461.66;5018251;28;45507;-64
2022/07/31 11:28:22;;;;;;;;;9.33;9.33;;;;;28.86;36.57;101452.53;5017527;28;46955;-66